Time;durP1;ratioP1;P1;durP2;ratioP2;P2;SDS_P1;SDS_P2;PMS_P1;PMS_P2;Temp;Humidity;BMP_temperature;BMP_pressure;BME280_temperature;BME280_humidity;BME280_pressure;Samples;Min_cycle;Max_cycle;Signal;HPM_P1;HPM_P2
2023/01/25 00:01:52;;;;;;;44.63;26.60;;;2.50;99.90;;;;;;5054812;28;20487;-71
2023/01/25 00:04:21;;;;;;;30.30;17.35;;;2.60;99.90;;;;;;5044898;28;20083;-71
2023/01/25 00:06:48;;;;;;;26.35;16.85;;;2.60;99.90;;;;;;5052872;28;20036;-73
2023/01/25 00:09:15;;;;;;;27.27;17.42;;;2.60;99.90;;;;;;5057261;28;20046;-73
2023/01/25 00:11:41;;;;;;;34.40;19.58;;;2.50;99.90;;;;;;5056949;28;20017;-72
2023/01/25 00:14:09;;;;;;;29.75;19.88;;;2.50;99.90;;;;;;5053486;28;20096;-72
2023/01/25 00:16:36;;;;;;;32.80;18.95;;;2.50;99.90;;;;;;5070503;28;20063;-75
2023/01/25 00:19:02;;;;;;;28.27;17.40;;;2.50;99.90;;;;;;5046631;28;20045;-73
2023/01/25 00:21:29;;;;;;;33.20;19.35;;;2.60;99.90;;;;;;5053029;28;20473;-74
2023/01/25 00:23:55;;;;;;;30.38;18.95;;;2.50;99.90;;;;;;5054505;28;20119;-78
2023/01/25 00:26:21;;;;;;;31.60;18.30;;;2.60;99.90;;;;;;5037159;28;20174;-71
2023/01/25 00:28:54;;;;;;;30.40;17.30;;;2.50;99.90;;;;;;5058763;28;20037;-71
2023/01/25 00:31:32;;;;;;;29.77;18.05;;;2.60;99.90;;;;;;5053116;28;20079;-71
2023/01/25 00:34:23;;;;;;;31.77;18.15;;;2.50;99.90;;;;;;5059318;28;20037;-72
2023/01/25 00:37:12;;;;;;;41.55;21.70;;;2.50;99.90;;;;;;5047007;28;20524;-71
2023/01/25 00:39:42;;;;;;;39.67;21.30;;;2.40;99.90;;;;;;5059856;28;20025;-75
2023/01/25 00:42:13;;;;;;;32.45;18.42;;;2.50;99.90;;;;;;5069663;28;20472;-71
2023/01/25 00:44:39;;;;;;;43.72;24.42;;;2.40;99.90;;;;;;5066835;28;20499;-71
2023/01/25 00:47:11;;;;;;;30.40;18.95;;;2.40;99.90;;;;;;5050123;28;20025;-71
2023/01/25 00:49:40;;;;;;;40.90;21.15;;;2.40;99.90;;;;;;5050688;28;20040;-71
2023/01/25 00:52:07;;;;;;;29.50;17.10;;;2.40;99.90;;;;;;5054186;28;20082;-71
2023/01/25 00:54:33;;;;;;;30.05;17.00;;;2.50;99.90;;;;;;5053890;28;20106;-72
2023/01/25 00:56:59;;;;;;;32.70;16.83;;;2.40;99.90;;;;;;5052857;28;20103;-73
2023/01/25 00:59:25;;;;;;;30.23;16.33;;;2.40;99.90;;;;;;5053444;28;20106;-72
2023/01/25 01:01:53;;;;;;;34.92;17.65;;;2.50;99.90;;;;;;5052515;28;20043;-73
2023/01/25 01:04:23;;;;;;;29.00;18.20;;;2.40;99.90;;;;;;5052400;28;20362;-72
2023/01/25 01:06:50;;;;;;;33.33;20.08;;;2.50;99.90;;;;;;5053036;28;20036;-72
2023/01/25 01:09:18;;;;;;;35.80;19.83;;;2.40;99.90;;;;;;5057762;28;20376;-72
2023/01/25 01:11:45;;;;;;;30.98;18.30;;;2.40;99.90;;;;;;5052009;28;20130;-70
2023/01/25 01:14:11;;;;;;;34.17;19.42;;;2.30;99.90;;;;;;5052455;28;20104;-71
2023/01/25 01:16:38;;;;;;;34.15;18.52;;;2.30;99.90;;;;;;5052348;28;20053;-76
2023/01/25 01:19:09;;;;;;;34.33;20.13;;;2.40;99.90;;;;;;5050554;28;20044;-72
2023/01/25 01:21:37;;;;;;;29.88;19.00;;;2.40;99.90;;;;;;5053120;28;20029;-70
2023/01/25 01:24:03;;;;;;;28.95;18.92;;;2.40;99.90;;;;;;5039543;28;20028;-71
2023/01/25 01:26:30;;;;;;;29.85;16.88;;;2.40;99.90;;;;;;5051789;28;20051;-72
2023/01/25 01:28:57;;;;;;;27.40;17.08;;;2.30;99.90;;;;;;5051844;28;20396;-73
2023/01/25 01:31:25;;;;;;;30.48;17.77;;;2.30;99.90;;;;;;5051494;28;20120;-72
2023/01/25 01:34:04;;;;;;;32.45;20.45;;;2.30;99.90;;;;;;5050553;28;20473;-72
2023/01/25 01:36:30;;;;;;;31.65;16.98;;;2.30;99.90;;;;;;5050812;28;20043;-73
2023/01/25 01:38:58;;;;;;;31.20;19.48;;;2.30;99.90;;;;;;5053281;28;20025;-76
2023/01/25 01:41:32;;;;;;;28.05;15.75;;;2.30;99.90;;;;;;5035152;28;20377;-77
2023/01/25 01:44:01;;;;;;;27.50;17.00;;;2.30;99.90;;;;;;5049184;28;20031;-73
2023/01/25 01:46:38;;;;;;;31.42;16.63;;;2.30;99.90;;;;;;5052405;28;20029;-73
2023/01/25 01:49:15;;;;;;;30.27;15.65;;;2.30;99.90;;;;;;5051904;28;20029;-72
2023/01/25 01:51:52;;;;;;;31.55;16.98;;;2.30;99.90;;;;;;5050461;28;20079;-73
2023/01/25 01:54:30;;;;;;;28.17;16.92;;;2.30;99.90;;;;;;5052892;28;20044;-72
2023/01/25 01:57:15;;;;;;;28.00;16.08;;;2.30;99.90;;;;;;5049169;28;20563;-72
2023/01/25 01:59:52;;;;;;;31.05;18.05;;;2.30;99.90;;;;;;5047136;28;20033;-72
2023/01/25 02:02:25;;;;;;;30.73;18.35;;;2.20;99.90;;;;;;5051158;28;20480;-72
2023/01/25 02:04:57;;;;;;;34.70;21.80;;;2.20;99.90;;;;;;5052596;28;20372;-72
2023/01/25 02:07:35;;;;;;;32.50;18.45;;;2.20;99.90;;;;;;5051793;28;20025;-77
2023/01/25 02:10:04;;;;;;;32.13;17.35;;;2.20;99.90;;;;;;5051807;28;20024;-76
2023/01/25 02:12:31;;;;;;;28.10;15.75;;;2.20;99.90;;;;;;5067881;28;20048;-73
2023/01/25 02:15:02;;;;;;;32.45;19.30;;;2.20;99.90;;;;;;5049153;28;20069;-74
2023/01/25 02:17:39;;;;;;;27.08;15.68;;;2.30;99.90;;;;;;5040241;28;20029;-72
2023/01/25 02:20:20;;;;;;;28.88;16.25;;;2.30;99.90;;;;;;5051287;28;20162;-72
2023/01/25 02:23:11;;;;;;;94.95;49.67;;;2.20;99.90;;;;;;5056623;28;20036;-73
2023/01/25 02:25:38;;;;;;;45.75;26.45;;;2.20;99.90;;;;;;5049293;28;20060;-73
2023/01/25 02:28:25;;;;;;;51.25;29.13;;;2.20;99.90;;;;;;5051521;28;20380;-75
2023/01/25 02:30:51;;;;;;;35.03;18.50;;;2.20;99.90;;;;;;5033920;28;20104;-72
2023/01/25 02:33:17;;;;;;;41.42;23.80;;;2.20;99.90;;;;;;5043638;28;20137;-73
2023/01/25 02:35:52;;;;;;;51.15;30.42;;;2.00;99.90;;;;;;5053718;28;20033;-73
2023/01/25 02:38:20;;;;;;;35.78;22.25;;;2.10;99.90;;;;;;5052620;28;20416;-74
2023/01/25 02:40:58;;;;;;;29.50;17.25;;;2.10;99.90;;;;;;5051903;28;20033;-73
2023/01/25 02:43:28;;;;;;;40.85;25.20;;;2.00;99.90;;;;;;5068090;28;20116;-74
2023/01/25 02:46:09;;;;;;;39.17;22.75;;;2.10;99.90;;;;;;5066418;28;20025;-73
2023/01/25 02:48:35;;;;;;;39.10;21.73;;;2.10;99.90;;;;;;5067847;28;20033;-73
2023/01/25 02:51:05;;;;;;;34.92;19.95;;;2.10;99.90;;;;;;5039215;28;20025;-74
2023/01/25 02:53:31;;;;;;;33.58;19.08;;;2.10;99.90;;;;;;5052606;28;20044;-78
2023/01/25 02:55:56;;;;;;;31.23;18.05;;;2.20;99.90;;;;;;5052341;28;20079;-74
2023/01/25 02:58:22;;;;;;;25.67;15.65;;;2.20;99.90;;;;;;5052789;28;20060;-74
2023/01/25 03:00:49;;;;;;;27.13;17.08;;;2.10;99.90;;;;;;5063119;28;20045;-75
2023/01/25 03:03:16;;;;;;;24.80;14.80;;;2.20;99.90;;;;;;5067922;28;20362;-74
2023/01/25 03:05:43;;;;;;;25.02;17.50;;;2.20;99.90;;;;;;5051127;28;20388;-77
2023/01/25 03:08:09;;;;;;;26.20;16.90;;;2.20;99.90;;;;;;5052555;28;20433;-76
2023/01/25 03:10:35;;;;;;;28.63;16.42;;;2.30;99.90;;;;;;5053058;28;20029;-74
2023/01/25 03:13:02;;;;;;;29.90;15.75;;;2.40;99.90;;;;;;5056275;28;20469;-73
2023/01/25 03:15:28;;;;;;;31.00;16.80;;;2.40;99.90;;;;;;5071257;28;20037;-77
2023/01/25 03:17:55;;;;;;;29.77;16.55;;;2.40;99.90;;;;;;5071536;28;20029;-73
2023/01/25 03:20:21;;;;;;;27.67;16.60;;;2.40;99.90;;;;;;5055495;28;20052;-71
2023/01/25 03:22:47;;;;;;;31.67;18.55;;;2.50;99.90;;;;;;5054611;28;20033;-74
2023/01/25 03:25:14;;;;;;;28.38;16.40;;;2.40;99.90;;;;;;5054647;28;20037;-72
2023/01/25 03:27:50;;;;;;;34.13;17.88;;;2.30;99.90;;;;;;5067861;28;20026;-73
2023/01/25 03:30:16;;;;;;;25.65;14.88;;;2.30;99.90;;;;;;5049830;28;20096;-76
2023/01/25 03:32:42;;;;;;;29.80;15.10;;;2.30;99.90;;;;;;5054320;28;20388;-73
2023/01/25 03:35:12;;;;;;;30.75;17.20;;;2.30;99.90;;;;;;5070792;28;20036;-74
2023/01/25 03:37:38;;;;;;;28.20;16.48;;;2.30;99.90;;;;;;5057889;28;20029;-77
2023/01/25 03:40:05;;;;;;;30.67;18.33;;;2.30;99.90;;;;;;5053888;28;20040;-73
2023/01/25 03:42:31;;;;;;;30.23;17.00;;;2.40;99.90;;;;;;5052912;28;20455;-73
2023/01/25 03:44:57;;;;;;;29.42;16.60;;;2.40;99.90;;;;;;5055373;28;20025;-73
2023/01/25 03:47:23;;;;;;;27.40;15.77;;;2.40;99.90;;;;;;5055387;28;20052;-76
2023/01/25 03:49:50;;;;;;;28.40;16.55;;;2.50;99.90;;;;;;5053565;28;20033;-73
2023/01/25 03:52:18;;;;;;;27.67;16.45;;;2.40;99.90;;;;;;5055600;28;20029;-73
2023/01/25 03:54:45;;;;;;;25.65;14.20;;;2.40;99.90;;;;;;5070661;28;20033;-72
2023/01/25 03:57:12;;;;;;;31.88;17.05;;;2.30;99.90;;;;;;5070747;28;20021;-73
2023/01/25 03:59:49;;;;;;;37.75;19.48;;;2.50;99.90;;;;;;5053694;28;20162;-73
2023/01/25 04:02:15;;;;;;;28.73;15.60;;;2.40;99.90;;;;;;5053632;28;20482;-73
2023/01/25 04:04:41;;;;;;;27.55;16.08;;;2.50;99.90;;;;;;5070419;28;20064;-74
2023/01/25 04:07:08;;;;;;;30.25;15.30;;;2.50;99.90;;;;;;5070578;28;20032;-72
2023/01/25 04:09:35;;;;;;;28.38;15.15;;;2.60;99.90;;;;;;5053705;28;20035;-73
2023/01/25 04:12:02;;;;;;;26.38;14.30;;;2.70;99.90;;;;;;5055026;28;20033;-73
2023/01/25 04:14:31;;;;;;;26.45;14.60;;;2.70;99.90;;;;;;5070253;28;20392;-73
2023/01/25 04:17:04;;;;;;;26.88;14.52;;;2.70;99.90;;;;;;5053145;28;20064;-75
2023/01/25 04:19:37;;;;;;;31.08;14.40;;;2.60;99.90;;;;;;5053538;28;20140;-73
2023/01/25 04:22:05;;;;;;;27.42;15.68;;;2.50;99.90;;;;;;5067874;28;20068;-74
2023/01/25 04:24:35;;;;;;;26.95;14.57;;;2.50;99.90;;;;;;5053548;28;20021;-77
2023/01/25 04:27:01;;;;;;;27.55;14.95;;;2.50;99.90;;;;;;5053441;28;20040;-76
2023/01/25 04:29:30;;;;;;;26.13;15.57;;;2.40;99.90;;;;;;5053472;28;20021;-74
2023/01/25 04:31:57;;;;;;;28.95;17.02;;;2.40;99.90;;;;;;5052832;28;20033;-74
2023/01/25 04:34:23;;;;;;;26.95;15.00;;;2.40;99.90;;;;;;5053422;28;20021;-73
2023/01/25 04:36:49;;;;;;;31.20;17.33;;;2.40;99.90;;;;;;5054186;28;20025;-73
2023/01/25 04:39:16;;;;;;;30.83;15.02;;;2.50;99.90;;;;;;5052532;28;20032;-72
2023/01/25 04:41:42;;;;;;;28.52;16.20;;;2.50;99.90;;;;;;5069861;28;20473;-73
2023/01/25 04:44:07;;;;;;;27.02;15.85;;;2.50;99.90;;;;;;5056643;28;20068;-74
2023/01/25 04:46:35;;;;;;;27.60;15.55;;;2.50;99.90;;;;;;5069451;28;20280;-75
2023/01/25 04:49:01;;;;;;;29.95;16.50;;;2.50;99.90;;;;;;5054006;28;20476;-73
2023/01/25 04:51:26;;;;;;;30.13;16.45;;;2.50;99.90;;;;;;5052897;28;20087;-72
2023/01/25 04:53:52;;;;;;;29.23;15.70;;;2.50;99.90;;;;;;5069636;28;20021;-73
2023/01/25 04:56:18;;;;;;;25.17;15.27;;;2.60;99.90;;;;;;5069351;28;20066;-71
2023/01/25 04:58:53;;;;;;;28.10;15.13;;;2.50;99.90;;;;;;5052952;28;20029;-71
2023/01/25 05:01:20;;;;;;;31.20;15.85;;;2.50;99.90;;;;;;5053536;28;20033;-71
2023/01/25 05:03:46;;;;;;;27.20;16.45;;;2.60;99.90;;;;;;5069241;28;20060;-72
2023/01/25 05:06:21;;;;;;;33.25;19.02;;;2.60;99.90;;;;;;5052486;28;20029;-72
2023/01/25 05:08:47;;;;;;;26.65;15.90;;;2.50;99.90;;;;;;5059170;28;20030;-72
2023/01/25 05:11:14;;;;;;;28.25;14.85;;;2.50;99.90;;;;;;5042678;28;20024;-73
2023/01/25 05:13:53;;;;;;;29.75;16.02;;;2.40;99.90;;;;;;5052502;28;20025;-72
2023/01/25 05:16:27;;;;;;;29.85;15.98;;;2.40;99.90;;;;;;5068319;28;20128;-72
2023/01/25 05:18:56;;;;;;;27.35;15.20;;;2.30;99.90;;;;;;5068671;28;20174;-72
2023/01/25 05:24:15;;;;;;;26.17;15.50;;;2.30;99.90;;;;;;5042463;28;20507;-72
2023/01/25 05:26:59;;;;;;;32.58;15.02;;;2.40;99.90;;;;;;5067073;28;20039;-72
2023/01/25 05:29:27;;;;;;;35.83;19.20;;;2.40;99.90;;;;;;5051905;28;20029;-71
2023/01/25 05:32:18;;;;;;;31.65;16.30;;;2.40;99.90;;;;;;5068461;28;20025;-73
2023/01/25 05:34:45;;;;;;;30.92;17.83;;;2.40;99.90;;;;;;5052324;28;20033;-72
2023/01/25 05:37:19;;;;;;;27.65;15.80;;;2.40;99.90;;;;;;5052832;28;20033;-73
2023/01/25 05:39:47;;;;;;;26.88;15.60;;;2.30;99.90;;;;;;5052132;28;20031;-73
2023/01/25 05:42:16;;;;;;;29.00;15.15;;;2.30;99.90;;;;;;5068673;28;20025;-73
2023/01/25 05:44:42;;;;;;;27.38;16.15;;;2.30;99.90;;;;;;5068875;28;20078;-73
2023/01/25 05:47:13;;;;;;;32.50;17.58;;;2.30;99.90;;;;;;5068579;28;20052;-74
2023/01/25 05:49:39;;;;;;;35.25;18.67;;;2.40;99.90;;;;;;5052888;28;20029;-72
2023/01/25 05:52:13;;;;;;;31.15;16.40;;;2.40;99.90;;;;;;5068749;28;20020;-74
2023/01/25 05:54:40;;;;;;;30.73;17.80;;;2.30;99.90;;;;;;5068275;28;20032;-72
2023/01/25 05:57:06;;;;;;;33.20;16.58;;;2.30;99.90;;;;;;5068506;28;20127;-73
2023/01/25 05:59:34;;;;;;;32.63;17.58;;;2.30;99.90;;;;;;5066860;28;20025;-72
2023/01/25 06:02:00;;;;;;;32.22;18.90;;;2.30;99.90;;;;;;5051576;28;20039;-73
2023/01/25 06:04:26;;;;;;;35.13;18.88;;;2.40;99.90;;;;;;5052924;28;20423;-72
2023/01/25 06:06:52;;;;;;;32.13;17.40;;;2.40;99.90;;;;;;5068489;28;20384;-73
2023/01/25 06:09:18;;;;;;;35.83;16.42;;;2.40;99.90;;;;;;5067912;28;20120;-72
2023/01/25 06:11:45;;;;;;;31.52;17.08;;;2.30;99.90;;;;;;5051655;28;20025;-73
2023/01/25 06:14:11;;;;;;;30.48;15.85;;;2.40;99.90;;;;;;5068386;28;20025;-73
2023/01/25 06:16:37;;;;;;;30.15;15.82;;;2.40;99.90;;;;;;5051535;28;20043;-72
2023/01/25 06:19:29;;;;;;;32.70;18.42;;;2.40;99.90;;;;;;5051077;28;20041;-73
2023/01/25 06:21:57;;;;;;;26.27;16.35;;;2.40;99.90;;;;;;5052894;28;20043;-73
2023/01/25 06:24:23;;;;;;;27.45;15.00;;;2.40;99.90;;;;;;5052601;28;20108;-73
2023/01/25 06:26:49;;;;;;;26.60;15.68;;;2.40;99.90;;;;;;5052881;28;20033;-73
2023/01/25 06:29:15;;;;;;;22.95;13.15;;;2.30;99.90;;;;;;5052798;28;20055;-73
2023/01/25 06:31:41;;;;;;;28.35;15.43;;;2.30;99.90;;;;;;5052456;28;20392;-75
2023/01/25 06:34:08;;;;;;;31.73;18.30;;;2.30;99.90;;;;;;5052784;28;20491;-73
2023/01/25 06:36:34;;;;;;;42.83;21.92;;;2.40;99.90;;;;;;5052789;28;20102;-73
2023/01/25 06:39:00;;;;;;;29.20;15.73;;;2.30;99.90;;;;;;5052768;28;20021;-73
2023/01/25 06:41:26;;;;;;;25.30;14.13;;;2.30;99.90;;;;;;5052360;28;20435;-73
2023/01/25 06:43:54;;;;;;;31.20;15.90;;;2.30;99.90;;;;;;5052539;28;20025;-73
2023/01/25 06:46:20;;;;;;;31.08;17.52;;;2.30;99.90;;;;;;5069793;28;20028;-73
2023/01/25 06:48:45;;;;;;;25.40;13.85;;;2.30;99.90;;;;;;5056806;28;20091;-73
2023/01/25 06:51:13;;;;;;;24.85;14.27;;;2.30;99.90;;;;;;5056691;28;20029;-76
2023/01/25 06:53:42;;;;;;;28.00;16.08;;;2.30;99.90;;;;;;5056039;28;20484;-73
2023/01/25 06:56:09;;;;;;;31.27;16.48;;;2.30;99.90;;;;;;5056612;28;20083;-72
2023/01/25 06:58:35;;;;;;;31.02;17.42;;;2.40;99.90;;;;;;5056517;28;20032;-72
2023/01/25 07:01:21;;;;;;;27.92;14.25;;;2.40;99.90;;;;;;5051205;28;20025;-73
2023/01/25 07:03:55;;;;;;;33.88;18.73;;;2.30;99.90;;;;;;5054450;28;20029;-72
2023/01/25 07:06:22;;;;;;;36.05;18.83;;;2.20;99.90;;;;;;5055627;28;20079;-73
2023/01/25 07:08:48;;;;;;;37.42;19.25;;;2.30;99.90;;;;;;5056211;28;20032;-74
2023/01/25 07:11:14;;;;;;;27.67;14.75;;;2.30;99.90;;;;;;5056206;28;20438;-73
2023/01/25 07:13:44;;;;;;;24.55;13.15;;;2.40;99.90;;;;;;5056411;28;20017;-73
2023/01/25 07:16:16;;;;;;;36.85;16.55;;;2.50;99.90;;;;;;5043321;28;20032;-72
2023/01/25 07:18:42;;;;;;;39.13;19.58;;;2.40;99.90;;;;;;5055674;28;20072;-73
2023/01/25 07:21:20;;;;;;;31.95;16.67;;;2.50;99.90;;;;;;5055243;28;20067;-72
2023/01/25 07:23:47;;;;;;;31.10;16.05;;;2.50;99.90;;;;;;5055591;28;20055;-73
2023/01/25 07:26:22;;;;;;;38.47;18.92;;;2.60;99.90;;;;;;5056584;28;20468;-77
2023/01/25 07:28:50;;;;;;;35.90;18.52;;;2.60;99.90;;;;;;5050445;28;20033;-77
2023/01/25 07:31:17;;;;;;;33.83;18.83;;;2.70;99.90;;;;;;5038363;28;20080;-73
2023/01/25 07:33:43;;;;;;;30.55;16.27;;;2.70;99.90;;;;;;5049426;28;20017;-73
2023/01/25 07:36:09;;;;;;;33.58;18.73;;;2.70;99.90;;;;;;5055286;28;20127;-72
2023/01/25 07:38:36;;;;;;;33.63;16.25;;;2.70;99.90;;;;;;5046334;28;20030;-73
2023/01/25 07:41:02;;;;;;;21.90;12.68;;;2.80;99.90;;;;;;5044404;28;20381;-73
2023/01/25 07:43:29;;;;;;;24.67;14.45;;;2.70;99.90;;;;;;5034945;28;20022;-72
2023/01/25 07:46:01;;;;;;;35.65;17.85;;;2.80;99.90;;;;;;5050446;28;20120;-75
2023/01/25 07:48:27;;;;;;;27.45;14.25;;;2.80;99.90;;;;;;5041589;28;20024;-72
2023/01/25 07:54:01;;;;;;;22.20;11.80;;;2.90;99.90;;;;;;5020744;28;20236;-72
2023/01/25 07:56:29;;;;;;;24.33;13.70;;;2.80;99.90;;;;;;5013116;28;20088;-72
2023/01/25 07:58:57;;;;;;;21.38;12.15;;;3.00;99.90;;;;;;5035822;28;20100;-72
2023/01/25 08:01:25;;;;;;;24.70;13.57;;;3.00;99.90;;;;;;5033464;28;20049;-72
2023/01/25 08:03:52;;;;;;;22.63;12.73;;;2.90;99.90;;;;;;5016461;28;20443;-77
2023/01/25 08:06:37;;;;;;;22.10;13.55;;;3.00;99.90;;;;;;5033050;28;20096;-72
2023/01/25 08:09:12;;;;;;;18.63;8.95;;;3.00;99.90;;;;;;5033126;28;20545;-73
2023/01/25 08:11:39;;;;;;;19.02;10.40;;;2.90;99.90;;;;;;5033159;28;20374;-72
2023/01/25 08:14:05;;;;;;;20.48;11.88;;;2.90;99.90;;;;;;5034167;28;20366;-73
2023/01/25 08:16:31;;;;;;;25.08;12.43;;;2.90;99.90;;;;;;5031081;28;20132;-72
2023/01/25 08:18:59;;;;;;;19.08;10.77;;;2.90;99.90;;;;;;5018738;28;20057;-74
2023/01/25 08:21:29;;;;;;;21.95;11.43;;;2.90;99.90;;;;;;5033168;28;20041;-73
2023/01/25 08:24:01;;;;;;;19.27;11.60;;;2.90;99.90;;;;;;5032871;28;20041;-72
2023/01/25 08:26:27;;;;;;;21.90;13.98;;;2.90;99.90;;;;;;5033022;28;20404;-73
2023/01/25 08:28:54;;;;;;;24.33;14.45;;;3.00;99.90;;;;;;5033271;28;20089;-72
2023/01/25 08:31:25;;;;;;;21.42;11.40;;;3.20;99.90;;;;;;5034835;28;20090;-72
2023/01/25 08:33:52;;;;;;;23.30;14.80;;;3.20;99.90;;;;;;5034647;28;20029;-72
2023/01/25 08:36:18;;;;;;;16.27;8.35;;;3.30;99.90;;;;;;5034813;28;20104;-72
2023/01/25 08:38:46;;;;;;;20.85;10.10;;;3.20;99.90;;;;;;5034562;28;20381;-74
2023/01/25 08:41:18;;;;;;;18.88;10.15;;;3.40;99.90;;;;;;5034812;28;20116;-72
2023/01/25 08:43:45;;;;;;;16.57;8.93;;;3.30;99.90;;;;;;5031508;28;20025;-73
2023/01/25 08:46:13;;;;;;;20.23;10.90;;;3.20;99.90;;;;;;5024874;28;20025;-73
2023/01/25 08:48:38;;;;;;;18.90;9.80;;;3.30;99.90;;;;;;5034317;28;20030;-73
2023/01/25 08:51:07;;;;;;;17.27;8.90;;;3.50;99.90;;;;;;5034664;28;20034;-74
2023/01/25 08:53:32;;;;;;;20.55;11.15;;;3.50;99.90;;;;;;5034402;28;20025;-73
2023/01/25 08:56:06;;;;;;;23.60;12.10;;;3.50;99.90;;;;;;5034230;28;20040;-72
2023/01/25 08:58:33;;;;;;;14.63;8.70;;;3.40;99.90;;;;;;5033046;28;20017;-72
2023/01/25 09:01:04;;;;;;;17.50;9.77;;;3.30;99.90;;;;;;5034296;28;20045;-74
2023/01/25 09:03:33;;;;;;;16.67;9.23;;;3.20;99.90;;;;;;5034025;28;20025;-72
2023/01/25 09:05:59;;;;;;;17.55;8.25;;;3.30;99.90;;;;;;5034212;28;20025;-72
2023/01/25 09:08:25;;;;;;;21.95;11.77;;;3.50;99.90;;;;;;5033823;28;20469;-73
2023/01/25 09:10:51;;;;;;;17.45;9.55;;;3.60;99.90;;;;;;5034110;28;20033;-72
2023/01/25 09:13:16;;;;;;;16.92;9.38;;;3.70;99.90;;;;;;5034004;28;20384;-74
2023/01/25 09:15:43;;;;;;;16.00;7.88;;;3.60;99.90;;;;;;5033814;28;20383;-72
2023/01/25 09:18:10;;;;;;;16.38;9.30;;;3.60;99.90;;;;;;5035045;28;20094;-72
2023/01/25 09:20:38;;;;;;;18.30;10.10;;;3.60;99.90;;;;;;5053782;28;20515;-72
2023/01/25 09:23:04;;;;;;;22.05;10.93;;;3.80;99.90;;;;;;5053817;28;20025;-72
2023/01/25 09:25:30;;;;;;;16.70;8.48;;;3.80;99.90;;;;;;5053630;28;20025;-72
2023/01/25 09:27:56;;;;;;;16.27;8.52;;;3.90;99.90;;;;;;5040609;28;20094;-72
2023/01/25 09:30:22;;;;;;;19.63;11.10;;;3.90;99.90;;;;;;5053549;28;20434;-72
2023/01/25 09:32:52;;;;;;;17.58;8.77;;;3.90;99.90;;;;;;5069070;28;20029;-73
2023/01/25 09:35:18;;;;;;;19.90;10.43;;;3.90;99.90;;;;;;5053261;28;20040;-72
2023/01/25 09:37:44;;;;;;;25.58;10.35;;;4.10;99.90;;;;;;5053653;28;20067;-72
2023/01/25 09:40:20;;;;;;;23.17;11.13;;;4.10;99.90;;;;;;5053435;28;20111;-73
2023/01/25 09:42:58;;;;;;;15.27;7.45;;;4.00;99.90;;;;;;5053394;28;20154;-72
2023/01/25 09:45:35;;;;;;;19.75;8.95;;;4.00;99.90;;;;;;5053241;28;20021;-73
2023/01/25 09:48:30;;;;;;;16.40;8.27;;;4.30;99.90;;;;;;5053335;28;20020;-72
2023/01/25 09:51:06;;;;;;;15.60;8.02;;;4.40;99.90;;;;;;5042896;28;20037;-72
2023/01/25 09:53:35;;;;;;;18.55;9.88;;;4.60;99.90;;;;;;5053161;28;20037;-73
2023/01/25 09:56:25;;;;;;;16.15;9.07;;;4.40;99.90;;;;;;5053186;28;20119;-74
2023/01/25 09:59:03;;;;;;;17.40;8.90;;;4.50;99.90;;;;;;5040710;28;20086;-72
2023/01/25 10:02:15;;;;;;;19.10;10.07;;;4.30;99.90;;;;;;5053134;28;20091;-73
2023/01/25 10:04:44;;;;;;;23.25;12.38;;;4.20;99.90;;;;;;4991461;28;20041;-73
2023/01/25 10:07:26;;;;;;;22.63;12.68;;;4.00;99.90;;;;;;4991983;28;20105;-72
2023/01/25 10:10:10;;;;;;;21.58;10.57;;;4.10;99.90;;;;;;4972124;28;20126;-71
2023/01/25 10:12:37;;;;;;;18.92;11.07;;;4.10;99.90;;;;;;4985711;28;20126;-71
2023/01/25 10:15:26;;;;;;;19.90;10.80;;;3.80;99.90;;;;;;4991591;28;20117;-71
2023/01/25 10:18:04;;;;;;;18.15;10.40;;;3.90;99.90;;;;;;4990967;28;20125;-71
2023/01/25 10:20:41;;;;;;;18.05;10.60;;;3.90;99.90;;;;;;4990888;28;20121;-71
2023/01/25 10:23:28;;;;;;;21.17;12.10;;;4.10;99.90;;;;;;4991499;28;20038;-73
2023/01/25 10:26:02;;;;;;;19.67;10.63;;;4.20;99.90;;;;;;4991573;28;20047;-71
2023/01/25 10:28:59;;;;;;;22.52;11.27;;;4.10;99.90;;;;;;4991743;28;20042;-71
2023/01/25 10:31:41;;;;;;;17.02;8.88;;;4.10;99.90;;;;;;4991660;28;20038;-73
2023/01/25 10:34:28;;;;;;;20.05;11.15;;;3.90;99.90;;;;;;4991400;28;20123;-72
2023/01/25 10:36:59;;;;;;;22.75;13.88;;;4.00;99.90;;;;;;5052668;28;20033;-72
2023/01/25 10:39:25;;;;;;;24.55;12.07;;;3.90;99.90;;;;;;5052618;28;20377;-71
2023/01/25 10:42:05;;;;;;;19.55;10.23;;;4.00;99.90;;;;;;5052574;28;20021;-71
2023/01/25 10:44:31;;;;;;;20.92;10.57;;;4.00;99.90;;;;;;5052684;28;20441;-71
2023/01/25 10:47:18;;;;;;;26.65;14.90;;;4.10;99.90;;;;;;5052674;28;20025;-73
2023/01/25 10:49:59;;;;;;;18.00;8.65;;;4.20;99.90;;;;;;5052417;28;20485;-76
2023/01/25 10:52:30;;;;;;;18.67;11.20;;;4.00;99.90;;;;;;5052671;28;20021;-71
2023/01/25 10:55:06;;;;;;;15.77;8.43;;;4.10;99.90;;;;;;5052351;28;20043;-72
2023/01/25 10:57:34;;;;;;;18.48;9.52;;;4.20;99.90;;;;;;5052764;28;20025;-72
2023/01/25 11:00:09;;;;;;;20.60;8.75;;;4.30;99.90;;;;;;5052548;28;20108;-72
2023/01/25 11:02:40;;;;;;;19.63;10.65;;;4.40;99.90;;;;;;5052451;28;20040;-72
2023/01/25 11:05:18;;;;;;;22.17;10.57;;;4.50;99.90;;;;;;5052481;28;20033;-71
2023/01/25 11:07:47;;;;;;;20.42;10.73;;;4.50;99.90;;;;;;5052118;28;20025;-71
2023/01/25 11:10:35;;;;;;;19.33;11.35;;;4.60;99.90;;;;;;5051166;28;20435;-72
2023/01/25 11:13:18;;;;;;;22.05;12.90;;;4.60;99.90;;;;;;5040053;28;20086;-71
2023/01/25 11:15:47;;;;;;;19.70;10.35;;;4.70;99.90;;;;;;5052306;28;20059;-71
2023/01/25 11:18:18;;;;;;;29.75;13.50;;;4.70;99.90;;;;;;5052080;28;20028;-71
2023/01/25 11:20:45;;;;;;;19.58;10.88;;;4.60;99.90;;;;;;5052349;28;20039;-71
2023/01/25 11:23:26;;;;;;;18.65;10.15;;;4.60;99.90;;;;;;5052354;28;20066;-71
2023/01/25 11:25:52;;;;;;;17.63;9.77;;;4.50;99.90;;;;;;5051037;28;20033;-71
2023/01/25 11:28:22;;;;;;;16.58;8.90;;;4.60;99.90;;;;;;5052147;28;20480;-72
2023/01/25 11:30:49;;;;;;;21.60;10.27;;;4.60;99.90;;;;;;5052075;28;20419;-71
2023/01/25 11:33:17;;;;;;;27.42;14.90;;;4.60;99.90;;;;;;5055436;28;20024;-71
2023/01/25 11:36:09;;;;;;;37.13;21.75;;;4.50;99.90;;;;;;5055603;28;20064;-71
2023/01/25 11:38:36;;;;;;;21.67;12.20;;;4.60;99.90;;;;;;4994415;28;20069;-72
2023/01/25 11:41:24;;;;;;;24.52;13.05;;;4.60;99.90;;;;;;4994429;28;20045;-72
2023/01/25 11:43:52;;;;;;;40.85;23.85;;;4.70;99.90;;;;;;4994127;28;20042;-72
2023/01/25 11:46:31;;;;;;;24.60;12.80;;;4.80;99.90;;;;;;4994274;28;20026;-73
2023/01/25 11:49:05;;;;;;;14.77;8.10;;;4.80;99.90;;;;;;4993778;28;20049;-72
2023/01/25 11:52:03;;;;;;;22.67;11.98;;;4.60;99.90;;;;;;4994057;28;20537;-73
2023/01/25 11:55:05;;;;;;;21.40;11.27;;;4.40;99.90;;;;;;4994174;28;20045;-72
2023/01/25 11:57:55;;;;;;;21.95;11.15;;;4.40;99.90;;;;;;4917250;29;20058;-71
2023/01/25 12:00:48;;;;;;;19.17;10.18;;;4.20;99.90;;;;;;4916858;29;20041;-71
2023/01/25 12:03:49;;;;;;;21.50;10.75;;;4.30;99.90;;;;;;4916675;29;20564;-72
2023/01/25 12:06:21;;;;;;;19.60;9.95;;;4.30;99.90;;;;;;4916676;29;20036;-71
2023/01/25 12:09:18;;;;;;;18.80;10.98;;;4.10;99.90;;;;;;4916907;29;20212;-71
2023/01/25 12:11:55;;;;;;;21.55;11.43;;;4.30;99.90;;;;;;4860740;29;20041;-71
2023/01/25 12:14:51;;;;;;;19.20;9.85;;;4.20;99.90;;;;;;4860587;29;20491;-71
2023/01/25 12:17:23;;;;;;;23.50;13.15;;;4.20;99.90;;;;;;4890637;29;20083;-73
2023/01/25 12:20:22;;;;;;;22.45;9.80;;;4.10;99.90;;;;;;4897408;29;20052;-71
2023/01/25 12:22:54;;;;;;;20.70;12.80;;;4.00;99.90;;;;;;4897753;29;20037;-71
2023/01/25 12:25:32;;;;;;;21.33;12.07;;;4.00;99.90;;;;;;4897811;29;20128;-71
2023/01/25 12:28:18;;;;;;;28.85;15.23;;;4.00;99.90;;;;;;4897904;29;20051;-72
2023/01/25 12:30:55;;;;;;;24.95;13.82;;;4.20;99.90;;;;;;4897505;29;20088;-76
2023/01/25 12:33:30;;;;;;;28.33;15.82;;;4.10;99.90;;;;;;4927840;28;20097;-74
2023/01/25 12:35:56;;;;;;;25.00;14.90;;;4.10;99.90;;;;;;4992936;28;20054;-72
2023/01/25 12:38:40;;;;;;;22.60;12.57;;;4.00;99.90;;;;;;4993335;28;20097;-76
2023/01/25 12:41:30;;;;;;;23.92;13.68;;;4.00;99.90;;;;;;4993026;28;20121;-72
2023/01/25 12:44:02;;;;;;;25.80;13.88;;;4.00;99.90;;;;;;4992496;28;20034;-72
2023/01/25 12:46:35;;;;;;;27.75;15.07;;;3.90;99.90;;;;;;4992969;28;20034;-72
2023/01/25 12:49:10;;;;;;;27.15;15.85;;;3.90;99.90;;;;;;5011506;28;20128;-72
2023/01/25 12:51:40;;;;;;;26.73;14.55;;;3.90;99.90;;;;;;5049721;28;20048;-72
2023/01/25 12:54:18;;;;;;;25.60;14.25;;;3.90;99.90;;;;;;5054388;28;20087;-72
2023/01/25 12:57:07;;;;;;;24.08;12.25;;;4.00;99.90;;;;;;5053953;28;20037;-71
2023/01/25 13:00:12;;;;;;;24.95;14.27;;;3.80;99.90;;;;;;5054251;28;20025;-76
2023/01/25 13:03:03;;;;;;;27.20;13.75;;;3.80;99.90;;;;;;4992875;28;20046;-71
2023/01/25 13:05:44;;;;;;;22.38;11.80;;;3.70;99.90;;;;;;4992645;28;20038;-75
2023/01/25 13:08:39;;;;;;;20.73;11.02;;;3.70;99.90;;;;;;4992785;28;20461;-72